createdAt,value
2022-08-17T00:00:42.830Z,21.01
2022-08-17T00:01:51.716Z,21.11
2022-08-17T00:03:14.452Z,21.24
2022-08-17T00:04:18.092Z,21.28
2022-08-17T00:05:20.177Z,21.31
2022-08-17T00:06:28.898Z,21.30
2022-08-17T00:07:30.493Z,21.31
2022-08-17T00:08:35.654Z,21.37
2022-08-17T00:09:37.578Z,21.41
2022-08-17T00:10:39.858Z,21.44
2022-08-17T00:11:43.833Z,21.44
2022-08-17T00:13:18.982Z,21.46
2022-08-17T00:14:20.585Z,21.46
2022-08-17T00:15:23.895Z,21.54
2022-08-17T00:16:55.341Z,21.60
2022-08-17T00:17:53.426Z,21.69
2022-08-17T00:19:07.834Z,21.73
2022-08-17T00:20:12.168Z,21.80
2022-08-17T00:21:15.836Z,21.85
2022-08-17T00:22:34.399Z,21.90
2022-08-17T00:23:38.567Z,21.94
2022-08-17T00:24:46.139Z,21.95
2022-08-17T00:25:48.145Z,21.94
2022-08-17T00:26:49.818Z,21.98
2022-08-17T00:27:51.428Z,22.01
2022-08-17T00:28:53.298Z,22.04
2022-08-17T00:29:54.901Z,22.05
2022-08-17T00:30:56.522Z,21.97
2022-08-17T00:31:58.122Z,21.88
2022-08-17T00:33:14.483Z,21.80
2022-08-17T00:34:19.020Z,21.56
2022-08-17T00:35:23.732Z,21.48
2022-08-17T00:36:25.575Z,21.36
2022-08-17T00:37:27.389Z,21.25
2022-08-17T00:38:30.123Z,21.16
2022-08-17T00:39:31.818Z,21.07
2022-08-17T00:40:44.595Z,21.03
2022-08-17T00:41:46.807Z,21.00
2022-08-17T00:42:49.356Z,20.87
2022-08-17T00:43:54.965Z,20.74
2022-08-17T00:44:56.835Z,20.65
2022-08-17T00:46:00.851Z,20.65
2022-08-17T00:47:02.475Z,20.72
2022-08-17T00:48:04.146Z,20.73
2022-08-17T00:49:15.820Z,20.73
2022-08-17T00:50:19.308Z,20.71
2022-08-17T00:51:30.001Z,20.72
2022-08-17T00:52:37.537Z,20.72
2022-08-17T00:53:44.306Z,20.77
2022-08-17T00:54:49.141Z,20.77
2022-08-17T00:55:51.010Z,20.79
2022-08-17T00:56:56.821Z,20.71
2022-08-17T00:58:01.767Z,20.69
2022-08-17T00:59:06.630Z,20.69
2022-08-17T01:00:13.822Z,20.71
2022-08-17T01:01:21.543Z,20.81
2022-08-17T01:02:24.443Z,20.96
2022-08-17T01:03:26.683Z,21.07
2022-08-17T01:04:30.182Z,21.17
2022-08-17T01:05:34.402Z,21.25
2022-08-17T01:06:36.087Z,21.30
2022-08-17T01:07:38.719Z,21.23
2022-08-17T01:08:40.656Z,21.24
2022-08-17T01:09:44.133Z,21.31
2022-08-17T01:10:59.735Z,21.32
2022-08-17T01:12:06.640Z,21.35
2022-08-17T01:13:11.770Z,21.33
2022-08-17T01:14:13.645Z,21.31
2022-08-17T01:15:16.214Z,21.27
2022-08-17T01:16:28.675Z,21.25
2022-08-17T01:17:30.462Z,21.08
2022-08-17T01:18:33.037Z,21.05
2022-08-17T01:19:39.141Z,21.00
2022-08-17T01:20:53.794Z,20.99
2022-08-17T01:22:05.935Z,20.98
2022-08-17T01:23:07.591Z,21.05
2022-08-17T01:24:09.829Z,21.14
2022-08-17T01:25:12.778Z,21.16
2022-08-17T01:26:14.707Z,21.09
2022-08-17T01:27:18.487Z,21.01
2022-08-17T01:28:33.489Z,20.98
2022-08-17T01:29:51.186Z,20.92
2022-08-17T01:30:58.378Z,20.91
2022-08-17T01:32:04.149Z,20.88
2022-08-17T01:33:05.934Z,20.81
2022-08-17T01:34:11.578Z,20.80
2022-08-17T01:35:14.446Z,20.80
2022-08-17T01:36:16.103Z,20.80
2022-08-17T01:37:20.078Z,20.73
2022-08-17T01:38:27.211Z,20.60
2022-08-17T01:39:31.866Z,20.43
2022-08-17T01:40:39.006Z,20.43
2022-08-17T01:41:41.170Z,20.48
2022-08-17T01:42:48.576Z,20.43
2022-08-17T01:44:03.757Z,20.36
2022-08-17T01:45:11.266Z,20.42
2022-08-17T01:46:21.868Z,20.49
2022-08-17T01:47:23.783Z,20.51
2022-08-17T01:48:31.217Z,20.62
2022-08-17T01:49:32.946Z,20.72
2022-08-17T01:50:37.918Z,20.80
2022-08-17T01:51:39.868Z,20.78
2022-08-17T01:52:44.123Z,20.83
2022-08-17T01:53:52.441Z,20.88
2022-08-17T01:54:54.918Z,20.98
2022-08-17T01:56:01.205Z,20.92
2022-08-17T01:57:02.857Z,20.83
2022-08-17T01:58:09.579Z,20.80
2022-08-17T01:59:12.009Z,20.78
2022-08-17T02:00:14.967Z,20.75
2022-08-17T02:01:23.518Z,20.82
2022-08-17T02:02:30.316Z,20.80
2022-08-17T02:03:34.538Z,20.67
2022-08-17T02:04:36.236Z,20.56
2022-08-17T02:05:37.966Z,20.46
2022-08-17T02:06:45.294Z,20.39
2022-08-17T02:07:59.521Z,20.47
2022-08-17T02:09:03.826Z,20.43
2022-08-17T02:10:06.603Z,20.43
2022-08-17T02:11:22.122Z,20.31
2022-08-17T02:12:38.358Z,20.26
2022-08-17T02:13:42.258Z,20.20
2022-08-17T02:14:43.997Z,20.17
2022-08-17T02:15:46.245Z,20.15
2022-08-17T02:16:47.867Z,20.10
2022-08-17T02:17:49.489Z,20.15
2022-08-17T02:18:56.548Z,20.17
2022-08-17T02:19:58.155Z,20.13
2022-08-17T02:21:00.399Z,20.26
2022-08-17T02:22:01.999Z,20.38
2022-08-17T02:23:04.998Z,20.46
2022-08-17T02:24:13.556Z,20.56
2022-08-17T02:25:18.209Z,20.62
2022-08-17T02:26:25.790Z,20.69
2022-08-17T02:27:28.757Z,20.76
2022-08-17T02:28:31.015Z,20.82
2022-08-17T02:29:32.798Z,20.91
2022-08-17T02:31:01.383Z,20.92
2022-08-17T02:31:58.593Z,20.85
2022-08-17T02:33:04.288Z,20.55
2022-08-17T02:34:08.265Z,20.48
2022-08-17T02:35:10.249Z,20.50
2022-08-17T02:36:13.435Z,20.55
2022-08-17T02:37:17.849Z,20.61
2022-08-17T02:38:19.474Z,20.74
2022-08-17T02:39:21.129Z,20.81
2022-08-17T02:40:35.788Z,20.90
2022-08-17T02:41:39.391Z,20.94
2022-08-17T02:42:43.289Z,20.98
2022-08-17T02:43:45.288Z,21.05
2022-08-17T02:44:46.949Z,21.07
2022-08-17T02:45:48.548Z,21.10
2022-08-17T02:46:50.275Z,21.12
2022-08-17T02:47:52.658Z,21.13
2022-08-17T02:48:54.626Z,21.11
2022-08-17T02:49:56.227Z,21.10
2022-08-17T02:50:57.914Z,21.07
2022-08-17T02:52:03.746Z,20.98
2022-08-17T02:53:05.714Z,20.84
2022-08-17T02:54:38.951Z,20.69
2022-08-17T02:55:34.254Z,20.55
2022-08-17T02:56:35.837Z,20.42
2022-08-17T02:57:38.076Z,20.33
2022-08-17T02:58:39.714Z,20.27
2022-08-17T02:59:45.438Z,20.21
2022-08-17T03:00:50.040Z,20.13
2022-08-17T03:01:52.109Z,19.98
2022-08-17T03:02:54.135Z,19.91
2022-08-17T03:03:56.382Z,19.86
2022-08-17T03:04:57.962Z,19.81
2022-08-17T03:05:59.582Z,19.78
2022-08-17T03:07:01.270Z,19.72
2022-08-17T03:08:03.608Z,19.64
2022-08-17T03:09:05.262Z,19.65
2022-08-17T03:10:08.472Z,19.72
2022-08-17T03:11:10.491Z,19.71
2022-08-17T03:12:14.207Z,19.75
2022-08-17T03:13:15.928Z,19.77
2022-08-17T03:14:18.778Z,19.76
2022-08-17T03:15:31.503Z,19.72
2022-08-17T03:16:33.195Z,19.72
2022-08-17T03:17:36.310Z,19.67
2022-08-17T03:18:37.873Z,19.66
2022-08-17T03:19:42.986Z,19.62
2022-08-17T03:20:44.755Z,19.56
2022-08-17T03:21:46.341Z,19.58
2022-08-17T03:23:02.894Z,19.60
2022-08-17T03:24:08.779Z,19.65
2022-08-17T03:25:15.876Z,19.67
2022-08-17T03:26:21.121Z,19.72
2022-08-17T03:27:22.976Z,19.81
2022-08-17T03:28:25.669Z,19.91
2022-08-17T03:29:27.284Z,19.99
2022-08-17T03:30:29.362Z,20.06
2022-08-17T03:31:31.468Z,20.13
2022-08-17T03:32:39.168Z,20.20
2022-08-17T03:33:40.775Z,20.22
2022-08-17T03:34:42.858Z,20.25
2022-08-17T03:35:44.949Z,20.26
2022-08-17T03:36:46.535Z,20.26
2022-08-17T03:37:48.392Z,20.27
2022-08-17T03:39:01.594Z,20.33
2022-08-17T03:40:05.262Z,20.28
2022-08-17T03:41:07.119Z,20.22
2022-08-17T03:42:31.845Z,20.14
2022-08-17T03:43:34.836Z,19.99
2022-08-17T03:44:36.461Z,19.83
2022-08-17T03:45:57.252Z,19.64
2022-08-17T03:47:17.494Z,19.45
2022-08-17T03:48:37.521Z,19.33
2022-08-17T03:49:57.645Z,19.28
2022-08-17T03:51:17.728Z,19.23
2022-08-17T03:52:37.909Z,19.10
2022-08-17T03:54:09.667Z,19.13
2022-08-17T03:55:36.307Z,19.06
2022-08-17T03:56:44.718Z,19.04
2022-08-17T03:57:46.399Z,18.98
2022-08-17T03:58:48.389Z,18.96
2022-08-17T03:59:51.054Z,18.95
2022-08-17T04:00:53.276Z,18.88
2022-08-17T04:01:57.128Z,18.77
2022-08-17T04:02:58.723Z,18.71
2022-08-17T04:04:00.315Z,18.68
2022-08-17T04:05:02.638Z,18.70
2022-08-17T04:06:05.539Z,18.72
2022-08-17T04:07:07.820Z,18.76
2022-08-17T04:08:10.372Z,18.81
2022-08-17T04:09:12.472Z,18.88
2022-08-17T04:10:14.172Z,18.95
2022-08-17T04:11:15.740Z,18.96
2022-08-17T04:12:19.512Z,18.92
2022-08-17T04:13:24.196Z,18.83
2022-08-17T04:14:27.277Z,18.85
2022-08-17T04:15:29.669Z,18.87
2022-08-17T04:16:32.078Z,18.94
2022-08-17T04:17:33.710Z,18.90
2022-08-17T04:18:35.294Z,18.85
2022-08-17T04:19:37.081Z,18.77
2022-08-17T04:20:38.709Z,18.75
2022-08-17T04:21:40.512Z,18.80
2022-08-17T04:23:05.778Z,18.84
2022-08-17T04:24:07.964Z,18.86
2022-08-17T04:25:17.913Z,18.79
2022-08-17T04:26:52.957Z,18.88
2022-08-17T04:27:41.961Z,19.10
2022-08-17T04:28:44.446Z,19.29
2022-08-17T04:29:54.995Z,19.48
2022-08-17T04:30:57.473Z,19.66
2022-08-17T04:31:59.114Z,19.82
2022-08-17T04:33:06.104Z,19.89
2022-08-17T04:34:12.755Z,19.91
2022-08-17T04:35:30.329Z,20.06
2022-08-17T04:36:33.821Z,20.25
2022-08-17T04:37:35.413Z,20.45
2022-08-17T04:38:39.581Z,20.65
2022-08-17T04:40:04.192Z,20.83
2022-08-17T04:41:25.625Z,21.07
2022-08-17T04:42:27.189Z,21.23
2022-08-17T04:43:31.087Z,21.36
2022-08-17T04:44:37.139Z,21.49
2022-08-17T04:45:54.896Z,21.52
2022-08-17T04:46:58.042Z,21.55
2022-08-17T04:48:00.808Z,21.63
2022-08-17T04:49:06.179Z,21.79
2022-08-17T04:50:08.316Z,21.86
2022-08-17T04:51:17.247Z,21.92
2022-08-17T04:52:29.663Z,22.07
2022-08-17T04:53:44.369Z,22.26
2022-08-17T04:54:45.942Z,22.32
2022-08-17T04:55:48.155Z,22.36
2022-08-17T04:56:50.009Z,22.43
2022-08-17T04:57:51.650Z,22.36
2022-08-17T04:58:56.049Z,22.46
2022-08-17T04:59:57.644Z,22.54
2022-08-17T05:00:59.394Z,22.72
2022-08-17T05:02:01.025Z,22.86
2022-08-17T05:03:02.951Z,22.99
2022-08-17T05:04:32.894Z,23.12
2022-08-17T05:05:38.930Z,23.29
2022-08-17T05:06:40.560Z,23.28
2022-08-17T05:07:42.815Z,23.33
2022-08-17T05:08:44.414Z,23.50
2022-08-17T05:09:46.235Z,23.58
2022-08-17T05:10:48.696Z,23.62
2022-08-17T05:11:50.336Z,23.65
2022-08-17T05:13:18.921Z,23.71
2022-08-17T05:14:20.558Z,23.85
2022-08-17T05:15:22.135Z,23.95
2022-08-17T05:16:27.189Z,23.95
2022-08-17T05:17:28.772Z,24.04
2022-08-17T05:18:30.921Z,24.03
2022-08-17T05:19:32.535Z,24.07
2022-08-17T05:20:36.109Z,24.23
2022-08-17T05:21:37.705Z,24.40
2022-08-17T05:22:49.432Z,24.50
2022-08-17T05:23:54.889Z,24.65
2022-08-17T05:24:57.819Z,24.86
2022-08-17T05:25:59.501Z,24.89
2022-08-17T05:27:05.059Z,24.96
2022-08-17T05:28:09.442Z,25.09
2022-08-17T05:29:11.169Z,25.13
2022-08-17T05:30:13.880Z,25.16
2022-08-17T05:31:16.555Z,25.30
2022-08-17T05:32:39.320Z,25.54
2022-08-17T05:33:46.153Z,25.79
2022-08-17T05:34:48.212Z,25.91
2022-08-17T05:35:53.181Z,26.07
2022-08-17T05:36:54.758Z,26.21
2022-08-17T05:37:57.737Z,26.35
2022-08-17T05:38:59.338Z,26.43
2022-08-17T05:40:00.996Z,26.48
2022-08-17T05:41:05.677Z,26.51
2022-08-17T05:42:07.324Z,26.51
2022-08-17T05:43:10.526Z,26.53
2022-08-17T05:44:12.118Z,26.70
2022-08-17T05:45:15.895Z,26.86
2022-08-17T05:46:28.020Z,27.04
2022-08-17T05:47:31.118Z,27.20
2022-08-17T05:48:40.532Z,27.33
2022-08-17T05:49:42.244Z,27.43
2022-08-17T05:51:02.217Z,27.54
2022-08-17T05:52:03.939Z,27.35
2022-08-17T05:53:40.513Z,27.13
2022-08-17T05:55:18.125Z,27.35
2022-08-17T05:56:38.471Z,27.32
2022-08-17T05:57:53.121Z,27.41
2022-08-17T05:59:22.056Z,27.55
2022-08-17T06:00:59.020Z,27.66
2022-08-17T06:02:19.269Z,27.80
2022-08-17T06:03:52.324Z,27.94
2022-08-17T06:05:01.962Z,28.04
2022-08-17T06:06:25.181Z,28.04
2022-08-17T06:08:05.865Z,28.04
2022-08-17T06:09:30.192Z,28.05
2022-08-17T06:10:43.751Z,28.16
2022-08-17T06:11:53.902Z,28.19
2022-08-17T06:13:09.696Z,28.34
2022-08-17T06:14:29.756Z,28.44
2022-08-17T06:15:37.123Z,28.53
2022-08-17T06:16:46.551Z,28.63
2022-08-17T06:17:52.618Z,28.76
2022-08-17T06:19:19.564Z,28.83
2022-08-17T06:20:21.537Z,28.88
2022-08-17T06:21:30.530Z,28.99
2022-08-17T06:22:37.984Z,29.04
2022-08-17T06:23:44.491Z,28.96
2022-08-17T06:24:59.059Z,28.78
2022-08-17T06:26:06.222Z,28.74
2022-08-17T06:27:18.449Z,28.75
2022-08-17T06:28:30.820Z,28.66
2022-08-17T06:29:38.749Z,28.63
2022-08-17T06:31:00.338Z,28.66
2022-08-17T06:32:04.945Z,28.78
2022-08-17T06:33:15.040Z,28.85
2022-08-17T06:34:16.993Z,28.96
2022-08-17T06:35:33.620Z,29.12
2022-08-17T06:37:03.703Z,29.28
2022-08-17T06:38:45.169Z,29.36
2022-08-17T06:40:07.915Z,28.97
2022-08-17T06:41:18.673Z,28.66
2022-08-17T06:43:02.776Z,28.86
2022-08-17T06:44:43.463Z,28.54
2022-08-17T06:45:51.718Z,28.35
2022-08-17T06:47:03.474Z,28.30
2022-08-17T06:48:25.131Z,28.21
2022-08-17T06:49:57.744Z,28.20
2022-08-17T06:51:07.219Z,28.44
2022-08-17T06:52:37.079Z,28.84
2022-08-17T06:54:05.728Z,29.21
2022-08-17T06:55:21.549Z,29.45
2022-08-17T06:56:53.060Z,29.60
2022-08-17T06:58:12.394Z,29.70
2022-08-17T06:59:21.884Z,29.84
2022-08-17T07:00:29.614Z,29.91
2022-08-17T07:01:35.875Z,29.87
2022-08-17T07:02:57.342Z,29.94
2022-08-17T07:04:11.910Z,29.97
2022-08-17T07:05:17.215Z,29.78
2022-08-17T07:06:22.700Z,29.40
2022-08-17T07:07:42.814Z,29.33
2022-08-17T07:08:44.498Z,29.56
2022-08-17T07:09:46.177Z,29.48
2022-08-17T07:11:00.867Z,29.50
2022-08-17T07:12:11.183Z,29.70
2022-08-17T07:13:25.616Z,29.93
2022-08-17T07:14:58.446Z,30.07
2022-08-17T07:16:24.984Z,30.32
2022-08-17T07:17:47.549Z,30.39
2022-08-17T07:18:54.795Z,30.50
2022-08-17T07:20:08.698Z,30.62
2022-08-17T07:21:29.308Z,30.68
2022-08-17T07:22:50.484Z,30.64
2022-08-17T07:24:47.257Z,30.75
2022-08-17T07:25:50.414Z,30.70
2022-08-17T07:27:10.344Z,30.70
2022-08-17T07:28:13.020Z,30.65
2022-08-17T07:29:18.293Z,30.66
2022-08-17T07:30:30.858Z,30.67
2022-08-17T07:31:38.927Z,30.70
2022-08-17T07:32:51.129Z,30.49
2022-08-17T07:34:07.953Z,30.55
2022-08-17T07:35:31.365Z,30.55
2022-08-17T07:36:42.699Z,30.47
2022-08-17T07:38:05.651Z,30.64
2022-08-17T07:39:28.157Z,30.81
2022-08-17T07:41:02.635Z,31.03
2022-08-17T07:42:05.173Z,31.15
2022-08-17T07:43:23.753Z,31.41
2022-08-17T07:44:25.508Z,31.37
2022-08-17T07:45:45.809Z,31.18
2022-08-17T07:47:12.370Z,31.02
2022-08-17T07:48:20.990Z,30.91
2022-08-17T07:49:46.514Z,30.93
2022-08-17T07:50:50.642Z,30.83
2022-08-17T07:51:52.402Z,31.04
2022-08-17T07:52:54.077Z,31.18
2022-08-17T07:54:13.530Z,31.10
2022-08-17T07:55:31.882Z,31.14
2022-08-17T07:56:34.384Z,31.04
2022-08-17T07:57:36.678Z,31.02
2022-08-17T07:58:38.280Z,30.94
2022-08-17T08:00:01.643Z,30.97
2022-08-17T08:01:10.033Z,30.95
2022-08-17T08:02:15.731Z,30.97
2022-08-17T08:03:27.304Z,30.99
2022-08-17T08:06:03.029Z,30.77
2022-08-17T08:07:32.072Z,30.70
2022-08-17T08:08:42.312Z,30.45
2022-08-17T08:09:59.374Z,30.49
2022-08-17T08:11:15.226Z,30.46
2022-08-17T08:12:42.023Z,30.33
2022-08-17T08:13:45.572Z,30.48
2022-08-17T08:14:56.837Z,30.64
2022-08-17T08:16:24.476Z,30.78
2022-08-17T08:17:47.434Z,30.93
2022-08-17T08:18:55.999Z,30.98
2022-08-17T08:20:00.655Z,31.01
2022-08-17T08:21:31.732Z,30.98
2022-08-17T08:22:42.934Z,30.97
2022-08-17T08:24:06.389Z,30.93
2022-08-17T08:25:21.337Z,30.85
2022-08-17T08:26:46.441Z,30.81
2022-08-17T08:28:11.901Z,30.84
2022-08-17T08:29:29.920Z,31.03
2022-08-17T08:30:38.654Z,31.22
2022-08-17T08:32:01.649Z,31.19
2022-08-17T08:33:21.977Z,31.07
2022-08-17T08:35:02.974Z,30.92
2022-08-17T08:37:12.611Z,30.87
2022-08-17T08:38:26.799Z,30.90
2022-08-17T08:39:38.634Z,31.05
2022-08-17T08:41:05.405Z,31.07
2022-08-17T08:42:19.024Z,31.12
2022-08-17T08:43:50.789Z,31.06
2022-08-17T08:45:20.486Z,30.97
2022-08-17T08:46:47.191Z,31.01
2022-08-17T08:48:07.358Z,31.01
2022-08-17T08:50:02.611Z,31.06
2022-08-17T08:51:11.292Z,31.04
2022-08-17T08:52:23.108Z,30.71
2022-08-17T08:53:55.571Z,30.66
2022-08-17T08:55:09.089Z,30.79
2022-08-17T08:56:20.549Z,30.59
2022-08-17T08:57:34.162Z,30.59
2022-08-17T08:58:56.130Z,30.55
2022-08-17T09:00:23.909Z,30.77
2022-08-17T09:01:36.713Z,30.82
2022-08-17T09:02:53.524Z,30.75
2022-08-17T09:04:21.433Z,30.95
2022-08-17T09:05:44.505Z,31.04
2022-08-17T09:07:05.309Z,31.02
2022-08-17T09:08:16.545Z,31.01
2022-08-17T09:09:35.546Z,31.05
2022-08-17T09:11:02.419Z,31.30
2022-08-17T09:12:21.320Z,31.50
2022-08-17T09:13:46.115Z,31.62
2022-08-17T09:15:18.128Z,31.70
2022-08-17T09:16:43.106Z,31.88
2022-08-17T09:18:59.820Z,31.91
2022-08-17T09:19:34.468Z,32.10
2022-08-17T09:20:49.604Z,32.27
2022-08-17T09:21:55.693Z,32.29
2022-08-17T09:23:08.826Z,32.42
2022-08-17T09:24:46.535Z,32.58
2022-08-17T09:26:02.902Z,32.62
2022-08-17T09:27:14.222Z,32.54
2022-08-17T09:28:20.422Z,32.48
2022-08-17T09:29:25.513Z,32.41
2022-08-17T09:30:36.348Z,32.35
2022-08-17T09:31:49.479Z,32.35
2022-08-17T09:32:58.853Z,32.29
2022-08-17T09:34:16.589Z,32.15
2022-08-17T09:35:39.445Z,32.12
2022-08-17T09:36:56.212Z,32.04
2022-08-17T09:38:04.277Z,31.96
2022-08-17T09:39:35.123Z,31.74
2022-08-17T09:41:29.426Z,31.49
2022-08-17T09:42:40.062Z,31.47
2022-08-17T09:43:51.493Z,31.46
2022-08-17T09:45:26.587Z,31.48
2022-08-17T09:46:36.047Z,31.55
2022-08-17T09:47:48.380Z,31.59
2022-08-17T09:49:01.866Z,31.73
2022-08-17T09:50:13.455Z,31.80
2022-08-17T09:51:14.957Z,31.87
2022-08-17T09:52:29.400Z,31.90
2022-08-17T09:53:32.104Z,32.00
2022-08-17T09:54:40.345Z,32.11
2022-08-17T09:55:54.733Z,32.10
2022-08-17T09:57:29.369Z,32.08
2022-08-17T09:58:56.423Z,32.14
2022-08-17T10:00:16.057Z,31.88
2022-08-17T10:01:23.834Z,31.85
2022-08-17T10:03:00.848Z,31.80
2022-08-17T10:04:22.101Z,31.85
2022-08-17T10:05:39.721Z,31.93
2022-08-17T10:06:58.974Z,31.89
2022-08-17T10:08:09.574Z,31.93
2022-08-17T10:09:21.108Z,31.97
2022-08-17T10:10:32.710Z,31.85
2022-08-17T10:12:17.438Z,31.83
2022-08-17T10:13:39.791Z,31.96
2022-08-17T10:15:11.759Z,32.07
2022-08-17T10:16:38.317Z,32.15
2022-08-17T10:17:45.355Z,32.24
2022-08-17T10:18:52.904Z,32.27
2022-08-17T10:20:24.679Z,32.27
2022-08-17T10:21:45.319Z,32.19
2022-08-17T10:23:21.635Z,32.08
2022-08-17T10:25:01.985Z,31.98
2022-08-17T10:26:18.854Z,32.04
2022-08-17T10:27:25.011Z,32.11
2022-08-17T10:28:33.310Z,32.01
2022-08-17T10:30:04.547Z,32.02
2022-08-17T10:33:00.387Z,31.82
2022-08-17T10:34:13.761Z,31.68
2022-08-17T10:35:26.031Z,31.54
2022-08-17T10:36:39.511Z,31.51
2022-08-17T10:38:09.098Z,31.55
2022-08-17T10:39:26.409Z,31.65
2022-08-17T10:40:33.980Z,31.90
2022-08-17T10:41:45.372Z,32.01
2022-08-17T10:43:11.843Z,32.12
2022-08-17T10:44:38.330Z,32.09
2022-08-17T10:46:10.469Z,32.17
2022-08-17T10:47:55.610Z,32.24
2022-08-17T10:49:17.069Z,32.28
2022-08-17T10:50:43.299Z,32.25
2022-08-17T10:51:48.039Z,32.20
2022-08-17T10:52:50.108Z,32.24
2022-08-17T10:53:52.363Z,32.29
2022-08-17T10:54:57.999Z,32.37
2022-08-17T10:56:24.648Z,32.39
2022-08-17T10:57:29.315Z,32.25
2022-08-17T10:58:45.530Z,32.16
2022-08-17T10:59:50.770Z,32.09
2022-08-17T11:00:53.331Z,32.00
2022-08-17T11:02:04.610Z,31.99
2022-08-17T11:03:19.686Z,32.11
2022-08-17T11:05:00.101Z,32.20
2022-08-17T11:06:16.845Z,32.21
2022-08-17T11:07:41.116Z,32.35
2022-08-17T11:08:59.929Z,32.35
2022-08-17T11:10:01.468Z,32.35
2022-08-17T11:11:25.735Z,32.20
2022-08-17T11:12:54.503Z,32.20
2022-08-17T11:13:59.272Z,32.27
2022-08-17T11:15:03.930Z,32.26
2022-08-17T11:16:23.974Z,32.27
2022-08-17T11:17:41.444Z,32.28
2022-08-17T11:18:58.314Z,32.31
2022-08-17T11:20:32.444Z,32.22
2022-08-17T11:21:55.509Z,32.18
2022-08-17T11:23:28.628Z,32.15
2022-08-17T11:24:44.651Z,32.19
2022-08-17T11:25:56.728Z,32.24
2022-08-17T11:27:22.041Z,32.29
2022-08-17T11:28:34.634Z,32.38
2022-08-17T11:29:50.650Z,32.53
2022-08-17T11:31:44.097Z,32.58
2022-08-17T11:32:54.658Z,32.62
2022-08-17T11:34:04.514Z,32.65
2022-08-17T11:35:15.044Z,32.67
2022-08-17T11:36:34.914Z,32.55
2022-08-17T11:37:59.048Z,32.53
2022-08-17T11:39:19.598Z,32.63
2022-08-17T11:40:30.270Z,32.73
2022-08-17T11:41:55.062Z,32.56
2022-08-17T11:43:33.638Z,32.47
2022-08-17T11:44:55.839Z,32.41
2022-08-17T11:46:03.609Z,32.34
2022-08-17T11:47:33.868Z,32.27
2022-08-17T11:49:02.117Z,32.38
2022-08-17T11:50:58.958Z,32.48
2022-08-17T11:52:01.194Z,32.64
2022-08-17T11:53:03.940Z,32.63
2022-08-17T11:55:35.807Z,32.52
2022-08-17T11:56:43.482Z,32.50
2022-08-17T11:57:55.568Z,32.49
2022-08-17T11:58:58.670Z,32.45
2022-08-17T12:00:11.954Z,32.49
2022-08-17T12:01:56.729Z,32.51
2022-08-17T12:03:22.600Z,32.52
2022-08-17T12:04:33.413Z,32.53
2022-08-17T12:05:35.284Z,32.45
2022-08-17T12:06:52.239Z,32.36
2022-08-17T12:08:19.733Z,32.30
2022-08-17T12:09:26.394Z,32.21
2022-08-17T12:10:34.347Z,32.10
2022-08-17T12:12:14.502Z,31.96
2022-08-17T12:13:18.876Z,31.93
2022-08-17T12:14:44.971Z,31.94
2022-08-17T12:15:52.785Z,31.89
2022-08-17T12:17:06.701Z,31.90
2022-08-17T12:18:18.107Z,31.89
2022-08-17T12:19:21.727Z,31.98
2022-08-17T12:20:34.678Z,32.07
2022-08-17T12:21:53.853Z,32.20
2022-08-17T12:23:01.052Z,32.30
2022-08-17T12:24:13.316Z,32.37
2022-08-17T12:25:22.651Z,32.37
2022-08-17T12:26:31.593Z,32.34
2022-08-17T12:27:54.826Z,32.31
2022-08-17T12:29:06.436Z,32.37
2022-08-17T12:30:13.564Z,32.38
2022-08-17T12:31:24.655Z,32.49
2022-08-17T12:32:33.439Z,32.52
2022-08-17T12:33:37.370Z,32.55
2022-08-17T12:34:41.768Z,32.51
2022-08-17T12:35:45.107Z,32.47
2022-08-17T12:36:50.374Z,32.48
2022-08-17T12:37:52.164Z,32.51
2022-08-17T12:39:14.581Z,32.52
2022-08-17T12:40:27.535Z,32.58
2022-08-17T12:41:36.178Z,32.61
2022-08-17T12:42:40.401Z,32.57
2022-08-17T12:43:42.071Z,32.53
2022-08-17T12:44:50.480Z,32.55
2022-08-17T12:45:59.552Z,32.64
2022-08-17T12:47:20.973Z,32.69
2022-08-17T12:48:27.430Z,32.72
2022-08-17T12:49:30.971Z,32.66
2022-08-17T12:50:33.056Z,32.63
2022-08-17T12:51:34.757Z,32.67
2022-08-17T12:52:40.369Z,32.77
2022-08-17T12:53:53.998Z,32.74
2022-08-17T12:55:11.613Z,32.79
2022-08-17T12:56:13.503Z,32.80
2022-08-17T12:57:33.692Z,32.85
2022-08-17T12:58:45.366Z,32.95
2022-08-17T12:59:53.328Z,33.04
2022-08-17T13:01:09.256Z,33.06
2022-08-17T13:02:21.839Z,33.05
2022-08-17T13:03:26.490Z,32.98
2022-08-17T13:04:29.753Z,32.93
2022-08-17T13:05:43.781Z,32.90
2022-08-17T13:06:49.706Z,32.92
2022-08-17T13:07:53.375Z,32.97
2022-08-17T13:08:54.966Z,33.00
2022-08-17T13:09:56.694Z,32.94
2022-08-17T13:11:05.782Z,32.85
2022-08-17T13:12:08.189Z,32.78
2022-08-17T13:13:31.330Z,32.83
2022-08-17T13:14:33.365Z,32.86
2022-08-17T13:15:44.538Z,32.86
2022-08-17T13:17:00.021Z,32.83
2022-08-17T13:18:10.049Z,32.82
2022-08-17T13:19:39.753Z,32.80
2022-08-17T13:20:53.418Z,32.77
2022-08-17T13:21:58.789Z,32.78
2022-08-17T13:23:11.461Z,32.76
2022-08-17T13:24:21.115Z,32.70
2022-08-17T13:25:23.741Z,32.72
2022-08-17T13:26:32.623Z,32.70
2022-08-17T13:27:34.533Z,32.66
2022-08-17T13:28:37.507Z,32.66
2022-08-17T13:29:51.389Z,32.67
2022-08-17T13:31:30.152Z,32.63
2022-08-17T13:32:33.457Z,32.69
2022-08-17T13:33:44.608Z,32.77
2022-08-17T13:35:11.998Z,32.82
2022-08-17T13:36:30.166Z,32.81
2022-08-17T13:37:34.743Z,32.79
2022-08-17T13:38:45.551Z,32.84
2022-08-17T13:39:47.276Z,32.87
2022-08-17T13:40:53.178Z,32.83
2022-08-17T13:41:56.129Z,32.81
2022-08-17T13:42:58.636Z,32.71
2022-08-17T13:44:00.852Z,32.64
2022-08-17T13:45:32.317Z,32.64
2022-08-17T13:46:31.148Z,32.64
2022-08-17T13:47:33.267Z,32.56
2022-08-17T13:48:35.196Z,32.53
2022-08-17T13:49:41.983Z,32.51
2022-08-17T13:50:56.602Z,32.55
2022-08-17T13:51:58.487Z,32.58
2022-08-17T13:53:00.307Z,32.57
2022-08-17T13:54:05.663Z,32.53
2022-08-17T13:55:20.303Z,32.48
2022-08-17T13:56:38.056Z,32.37
2022-08-17T13:57:46.110Z,32.24
2022-08-17T13:59:54.300Z,32.21
2022-08-17T14:00:53.769Z,32.19
2022-08-17T14:01:56.321Z,32.13
2022-08-17T14:02:59.613Z,32.11
2022-08-17T14:04:06.831Z,32.12
2022-08-17T14:05:08.419Z,32.09
2022-08-17T14:06:12.636Z,32.07
2022-08-17T14:07:40.183Z,31.92
2022-08-17T14:08:41.789Z,31.95
2022-08-17T14:10:07.413Z,32.02
2022-08-17T14:11:09.104Z,32.10
2022-08-17T14:12:13.188Z,32.13
2022-08-17T14:13:15.399Z,32.19
2022-08-17T14:14:17.823Z,32.20
2022-08-17T14:15:22.593Z,32.16
2022-08-17T14:16:24.248Z,32.11
2022-08-17T14:17:28.799Z,32.18
2022-08-17T14:18:55.224Z,32.23
2022-08-17T14:19:52.670Z,32.20
2022-08-17T14:20:56.736Z,32.19
2022-08-17T14:21:59.064Z,32.23
2022-08-17T14:23:00.746Z,32.23
2022-08-17T14:24:02.444Z,32.26
2022-08-17T14:25:05.037Z,32.29
2022-08-17T14:26:10.673Z,32.34
2022-08-17T14:27:12.414Z,32.43
2022-08-17T14:28:14.102Z,32.38
2022-08-17T14:29:15.780Z,32.38
2022-08-17T14:30:18.192Z,32.40
2022-08-17T14:31:20.614Z,32.35
2022-08-17T14:32:26.674Z,32.30
2022-08-17T14:33:29.030Z,32.28
2022-08-17T14:34:30.794Z,32.27
2022-08-17T14:35:32.451Z,32.29
2022-08-17T14:36:34.309Z,32.35
2022-08-17T14:37:36.542Z,32.37
2022-08-17T14:38:38.233Z,32.39
2022-08-17T14:39:40.147Z,32.40
2022-08-17T14:40:43.074Z,32.48
2022-08-17T14:41:44.944Z,32.52
2022-08-17T14:42:47.235Z,32.52
2022-08-17T14:43:49.570Z,32.55
2022-08-17T14:44:54.886Z,32.56
2022-08-17T14:45:56.475Z,32.55
2022-08-17T14:46:58.144Z,32.52
2022-08-17T14:48:05.699Z,32.46
2022-08-17T14:49:09.227Z,32.41
2022-08-17T14:50:19.556Z,32.41
2022-08-17T14:51:22.306Z,32.42
2022-08-17T14:52:24.119Z,32.42
2022-08-17T14:53:25.769Z,32.42
2022-08-17T14:54:33.312Z,32.48
2022-08-17T14:55:39.799Z,32.50
2022-08-17T14:56:41.546Z,32.50
2022-08-17T14:57:46.970Z,32.46
2022-08-17T14:58:49.151Z,32.43
2022-08-17T14:59:54.499Z,32.37
2022-08-17T15:00:57.648Z,32.39
2022-08-17T15:02:00.572Z,32.37
2022-08-17T15:03:02.642Z,32.32
2022-08-17T15:04:04.418Z,32.34
2022-08-17T15:05:07.170Z,32.27
2022-08-17T15:06:11.203Z,32.29
2022-08-17T15:07:15.246Z,32.29
2022-08-17T15:08:17.470Z,32.33
2022-08-17T15:09:19.064Z,32.38
2022-08-17T15:10:21.546Z,32.36
2022-08-17T15:11:23.235Z,32.32
2022-08-17T15:12:28.626Z,32.31
2022-08-17T15:13:33.616Z,32.36
2022-08-17T15:14:36.451Z,32.40
2022-08-17T15:15:38.018Z,32.41